createdAt,value
2018-09-15T00:01:29.390Z,7.12
2018-09-15T00:03:57.635Z,6.33
2018-09-15T00:06:25.882Z,6.25
2018-09-15T00:08:54.107Z,6.35
2018-09-15T00:11:22.428Z,6.40
2018-09-15T00:13:50.699Z,6.12
2018-09-15T00:16:18.986Z,6.15
2018-09-15T00:18:47.198Z,6.70
2018-09-15T00:21:15.421Z,6.92
2018-09-15T00:23:43.725Z,6.70
2018-09-15T00:26:12.002Z,6.28
2018-09-15T00:28:40.219Z,6.65
2018-09-15T00:31:08.487Z,5.90
2018-09-15T00:33:36.714Z,6.00
2018-09-15T00:36:05.117Z,5.70
2018-09-15T00:38:34.108Z,6.97
2018-09-15T00:41:02.310Z,5.97
2018-09-15T00:43:30.590Z,5.92
2018-09-15T00:45:58.800Z,5.95
2018-09-15T00:48:27.056Z,6.17
2018-09-15T00:50:55.305Z,6.03
2018-09-15T00:53:23.575Z,6.45
2018-09-15T00:55:51.878Z,6.30
2018-09-15T00:58:20.149Z,6.50
2018-09-15T01:00:48.403Z,6.58
2018-09-15T01:03:16.694Z,5.45
2018-09-15T01:05:44.994Z,5.72
2018-09-15T01:08:13.357Z,5.67
2018-09-15T01:13:32.079Z,5.35
2018-09-15T01:16:00.302Z,6.15
2018-09-15T01:18:28.553Z,6.15
2018-09-15T01:20:56.794Z,6.15
2018-09-15T01:23:25.073Z,5.75
2018-09-15T01:25:53.576Z,5.47
2018-09-15T01:28:21.726Z,5.87
2018-09-15T01:30:49.982Z,6.28
2018-09-15T01:33:18.215Z,5.45
2018-09-15T01:35:46.530Z,5.70
2018-09-15T01:38:14.783Z,5.80
2018-09-15T01:40:43.078Z,5.60
2018-09-15T01:43:11.343Z,4.85
2018-09-15T01:45:39.635Z,5.80
2018-09-15T01:48:07.918Z,5.35
2018-09-15T01:50:36.160Z,5.35
2018-09-15T01:53:04.442Z,5.33
2018-09-15T01:55:32.721Z,5.20
2018-09-15T01:58:00.945Z,5.58
2018-09-15T02:00:29.312Z,5.20
2018-09-15T02:02:57.563Z,5.47
2018-09-15T02:05:25.831Z,5.37
2018-09-15T02:07:54.059Z,5.28
2018-09-15T02:10:22.280Z,5.37
2018-09-15T02:12:50.590Z,5.33
2018-09-15T02:15:18.869Z,4.97
2018-09-15T02:17:47.147Z,5.33
2018-09-15T02:20:15.410Z,5.10
2018-09-15T02:22:43.760Z,5.15
2018-09-15T02:25:11.980Z,5.05
2018-09-15T02:27:40.229Z,5.33
2018-09-15T02:30:08.518Z,5.12
2018-09-15T02:32:36.765Z,5.05
2018-09-15T02:35:05.089Z,4.92
2018-09-15T02:37:33.339Z,4.92
2018-09-15T02:40:01.543Z,5.05
2018-09-15T02:42:29.924Z,5.35
2018-09-15T02:44:58.196Z,4.60
2018-09-15T02:47:26.446Z,4.72
2018-09-15T02:49:54.691Z,4.60
2018-09-15T02:52:23.126Z,4.60
2018-09-15T02:54:51.394Z,4.62
2018-09-15T02:57:19.683Z,4.55
2018-09-15T02:59:48.170Z,4.37
2018-09-15T03:02:16.393Z,4.53
2018-09-15T03:04:44.648Z,4.67
2018-09-15T03:07:12.954Z,4.78
2018-09-15T03:09:41.192Z,4.70
2018-09-15T03:12:09.457Z,4.15
2018-09-15T03:14:37.671Z,4.40
2018-09-15T03:17:06.701Z,4.17
2018-09-15T03:19:34.989Z,4.05
2018-09-15T03:22:03.272Z,4.15
2018-09-15T03:24:31.570Z,4.03
2018-09-15T03:26:59.817Z,4.35
2018-09-15T03:29:28.101Z,4.05
2018-09-15T03:31:56.303Z,4.05
2018-09-15T03:34:24.590Z,4.25
2018-09-15T03:36:52.827Z,3.83
2018-09-15T03:39:21.265Z,3.90
2018-09-15T03:41:49.875Z,3.70
2018-09-15T03:44:18.075Z,4.20
2018-09-15T03:46:46.342Z,4.08
2018-09-15T03:49:14.611Z,4.00
2018-09-15T03:51:42.880Z,4.33
2018-09-15T03:54:16.548Z,3.98
2018-09-15T03:56:44.909Z,3.85
2018-09-15T03:59:13.161Z,4.03
2018-09-15T04:01:41.448Z,3.80
2018-09-15T04:04:09.738Z,3.55
2018-09-15T04:06:38.011Z,3.90
2018-09-15T04:09:07.782Z,3.50
2018-09-15T04:11:36.340Z,4.28
2018-09-15T04:14:04.582Z,3.50
2018-09-15T04:16:32.794Z,3.70
2018-09-15T04:19:01.081Z,3.80
2018-09-15T04:21:29.358Z,3.47
2018-09-15T04:23:57.567Z,4.03
2018-09-15T04:26:25.847Z,3.90
2018-09-15T04:28:54.070Z,3.85
2018-09-15T04:31:22.279Z,3.58
2018-09-15T04:33:50.612Z,3.65
2018-09-15T04:36:18.891Z,3.25
2018-09-15T04:38:47.175Z,3.42
2018-09-15T04:41:15.431Z,3.52
2018-09-15T04:43:43.652Z,3.85
2018-09-15T04:46:11.994Z,3.70
2018-09-15T04:48:40.276Z,3.20
2018-09-15T04:51:08.539Z,3.60
2018-09-15T04:53:36.789Z,2.90
2018-09-15T04:56:05.043Z,3.65
2018-09-15T04:58:33.847Z,3.27
2018-09-15T05:01:02.198Z,3.42
2018-09-15T05:03:30.561Z,3.60
2018-09-15T05:05:58.869Z,3.42
2018-09-15T05:08:27.119Z,3.72
2018-09-15T05:10:55.354Z,3.55
2018-09-15T05:13:23.609Z,3.30
2018-09-15T05:15:51.889Z,3.67
2018-09-15T05:18:20.147Z,3.72
2018-09-15T05:20:48.390Z,3.85
2018-09-15T05:23:16.615Z,3.30
2018-09-15T05:25:45.065Z,3.52
2018-09-15T05:28:13.314Z,3.80
2018-09-15T05:30:41.679Z,3.12
2018-09-15T05:33:09.934Z,3.45
2018-09-15T05:35:38.177Z,3.90
2018-09-15T05:38:06.405Z,3.52
2018-09-15T05:40:34.653Z,3.45
2018-09-15T05:43:03.013Z,3.80
2018-09-15T05:45:31.310Z,3.87
2018-09-15T05:47:59.551Z,3.52
2018-09-15T05:50:27.993Z,3.58
2018-09-15T05:52:56.458Z,3.90
2018-09-15T05:55:24.684Z,3.95
2018-09-15T05:57:52.893Z,3.80
2018-09-15T06:00:21.309Z,3.58
2018-09-15T06:02:49.519Z,3.67
2018-09-15T06:05:17.791Z,3.90
2018-09-15T06:07:46.050Z,3.77
2018-09-15T06:10:16.867Z,3.47
2018-09-15T06:12:45.118Z,3.70
2018-09-15T06:15:13.477Z,3.85
2018-09-15T06:17:41.705Z,3.80
2018-09-15T06:20:09.987Z,3.90
2018-09-15T06:22:38.216Z,3.87
2018-09-15T06:25:06.510Z,4.03
2018-09-15T06:27:34.761Z,4.05
2018-09-15T06:30:03.203Z,3.70
2018-09-15T06:32:31.560Z,3.98
2018-09-15T06:34:59.833Z,3.92
2018-09-15T06:37:28.025Z,4.00
2018-09-15T06:39:56.274Z,4.47
2018-09-15T06:42:24.521Z,4.03
2018-09-15T06:44:52.791Z,3.90
2018-09-15T06:47:21.075Z,3.80
2018-09-15T06:49:49.411Z,4.20
2018-09-15T06:52:17.664Z,3.90
2018-09-15T06:54:45.999Z,3.85
2018-09-15T06:57:14.288Z,4.08
2018-09-15T06:59:42.672Z,4.30
2018-09-15T07:02:10.934Z,4.55
2018-09-15T07:04:40.010Z,4.37
2018-09-15T07:07:08.394Z,4.28
2018-09-15T07:09:36.568Z,4.50
2018-09-15T07:12:04.795Z,4.40
2018-09-15T07:14:33.087Z,4.47
2018-09-15T07:17:01.417Z,4.45
2018-09-15T07:19:29.771Z,4.17
2018-09-15T07:21:58.050Z,3.90
2018-09-15T07:24:26.309Z,4.25
2018-09-15T07:26:54.673Z,4.70
2018-09-15T07:29:22.946Z,4.30
2018-09-15T07:31:51.266Z,4.10
2018-09-15T07:34:19.504Z,4.05
2018-09-15T07:36:47.807Z,4.30
2018-09-15T07:39:16.102Z,4.55
2018-09-15T07:41:44.316Z,4.65
2018-09-15T07:44:12.576Z,4.67
2018-09-15T07:46:40.863Z,4.60
2018-09-15T07:49:09.123Z,3.87
2018-09-15T07:51:37.500Z,3.83
2018-09-15T07:54:05.801Z,3.50
2018-09-15T07:56:34.083Z,3.37
2018-09-15T07:59:02.340Z,3.30
2018-09-15T08:01:30.583Z,3.50
2018-09-15T08:03:58.894Z,3.77
2018-09-15T08:06:27.127Z,3.87
2018-09-15T08:08:55.487Z,3.65
2018-09-15T08:11:23.776Z,3.67
2018-09-15T08:13:52.049Z,3.52
2018-09-15T08:16:20.339Z,3.62
2018-09-15T08:18:48.516Z,3.30
2018-09-15T08:21:16.880Z,3.50
2018-09-15T08:23:45.370Z,3.60
2018-09-15T08:26:13.859Z,3.60
2018-09-15T08:28:42.107Z,3.37
2018-09-15T08:31:10.347Z,3.05
2018-09-15T08:33:38.633Z,3.70
2018-09-15T08:36:13.189Z,3.30
2018-09-15T08:38:41.473Z,3.20
2018-09-15T08:41:09.743Z,2.85
2018-09-15T08:43:37.980Z,3.45
2018-09-15T08:46:06.215Z,3.40
2018-09-15T08:48:34.454Z,3.22
2018-09-15T08:51:02.698Z,2.98
2018-09-15T08:53:30.933Z,3.25
2018-09-15T08:55:59.206Z,3.55
2018-09-15T08:58:27.457Z,3.50
2018-09-15T09:00:55.688Z,3.12
2018-09-15T09:03:23.953Z,3.25
2018-09-15T09:05:52.250Z,3.02
2018-09-15T09:08:20.446Z,2.92
2018-09-15T09:10:48.693Z,3.10
2018-09-15T09:13:16.932Z,2.85
2018-09-15T09:15:45.210Z,3.33
2018-09-15T09:18:13.486Z,2.58
2018-09-15T09:20:41.841Z,3.05
2018-09-15T09:23:10.492Z,2.90
2018-09-15T09:25:38.795Z,2.87
2018-09-15T09:28:07.099Z,2.98
2018-09-15T09:30:35.422Z,2.72
2018-09-15T09:33:03.692Z,2.42
2018-09-15T09:35:32.111Z,2.60
2018-09-15T09:38:00.380Z,2.58
2018-09-15T09:40:28.627Z,2.60
2018-09-15T09:42:56.916Z,2.45
2018-09-15T09:45:26.419Z,2.67
2018-09-15T09:47:56.094Z,2.50
2018-09-15T09:50:24.302Z,2.70
2018-09-15T09:52:52.531Z,2.27
2018-09-15T09:55:20.742Z,2.40
2018-09-15T09:57:48.946Z,2.50
2018-09-15T10:00:22.575Z,2.52
2018-09-15T10:02:50.791Z,2.85
2018-09-15T10:05:18.999Z,2.47
2018-09-15T10:07:47.278Z,2.72
2018-09-15T10:10:16.047Z,2.40
2018-09-15T10:12:44.364Z,2.52
2018-09-15T10:15:12.602Z,2.17
2018-09-15T10:17:40.872Z,2.60
2018-09-15T10:20:09.223Z,2.50
2018-09-15T10:22:37.495Z,2.12
2018-09-15T10:25:05.749Z,2.30
2018-09-15T10:27:34.024Z,2.40
2018-09-15T10:30:02.319Z,2.67
2018-09-15T10:32:30.651Z,2.12
2018-09-15T10:34:58.883Z,2.33
2018-09-15T10:37:27.757Z,2.40
2018-09-15T10:39:56.069Z,2.60
2018-09-15T10:42:24.285Z,2.33
2018-09-15T10:44:52.478Z,2.17
2018-09-15T10:47:22.479Z,2.33
2018-09-15T10:49:51.605Z,2.20
2018-09-15T10:52:19.874Z,2.17
2018-09-15T10:54:48.185Z,2.45
2018-09-15T10:57:16.574Z,2.08
2018-09-15T10:59:44.828Z,2.10
2018-09-15T11:02:13.871Z,2.25
2018-09-15T11:04:44.827Z,2.10
2018-09-15T11:07:13.347Z,2.15
2018-09-15T11:09:41.854Z,2.02
2018-09-15T11:12:10.333Z,2.10
2018-09-15T11:14:38.689Z,1.85
2018-09-15T11:17:07.391Z,2.02
2018-09-15T11:19:35.700Z,2.27
2018-09-15T11:22:04.718Z,2.60
2018-09-15T11:24:33.600Z,3.17
2018-09-15T11:27:03.687Z,3.20
2018-09-15T11:29:31.978Z,2.47
2018-09-15T11:32:01.166Z,2.92
2018-09-15T11:34:30.274Z,2.80
2018-09-15T11:36:58.563Z,2.83
2018-09-15T11:39:27.456Z,3.35
2018-09-15T11:41:55.735Z,3.02
2018-09-15T11:44:24.029Z,3.77
2018-09-15T11:46:53.055Z,3.12
2018-09-15T11:49:22.290Z,2.87
2018-09-15T11:51:50.614Z,3.40
2018-09-15T11:54:26.603Z,3.08
2018-09-15T11:56:54.880Z,3.12
2018-09-15T11:59:23.211Z,3.47
2018-09-15T12:01:51.445Z,2.95
2018-09-15T12:04:19.694Z,3.00
2018-09-15T12:06:47.927Z,3.10
2018-09-15T12:09:16.193Z,3.10
2018-09-15T12:11:44.919Z,3.08
2018-09-15T12:14:13.570Z,3.00
2018-09-15T12:16:42.581Z,3.00
2018-09-15T12:19:11.367Z,3.10
2018-09-15T12:21:40.045Z,2.92
2018-09-15T12:24:08.502Z,2.67
2018-09-15T12:26:37.603Z,2.90
2018-09-15T12:29:06.501Z,2.95
2018-09-15T12:31:35.410Z,3.17
2018-09-15T12:34:04.072Z,2.85
2018-09-15T12:36:32.548Z,3.35
2018-09-15T12:39:01.411Z,3.05
2018-09-15T12:41:30.084Z,3.22
2018-09-15T12:43:58.904Z,3.25
2018-09-15T12:46:27.948Z,3.10
2018-09-15T12:48:56.763Z,3.12
2018-09-15T12:51:25.497Z,3.27
2018-09-15T12:53:54.000Z,3.92
2018-09-15T12:56:22.627Z,3.72
2018-09-15T12:58:51.110Z,3.05
2018-09-15T13:01:19.701Z,3.52
2018-09-15T13:03:48.031Z,3.35
2018-09-15T13:06:16.237Z,3.05
2018-09-15T13:08:44.498Z,3.10
2018-09-15T13:11:12.722Z,3.77
2018-09-15T13:13:40.967Z,3.50
2018-09-15T13:16:10.310Z,3.20
2018-09-15T13:18:38.599Z,3.12
2018-09-15T13:21:06.802Z,3.15
2018-09-15T13:23:35.378Z,3.30
2018-09-15T13:26:03.743Z,2.85
2018-09-15T13:28:32.013Z,3.15
2018-09-15T13:31:00.284Z,3.17
2018-09-15T13:33:28.688Z,3.33
2018-09-15T13:35:56.990Z,3.33
2018-09-15T13:38:25.283Z,3.15
2018-09-15T13:40:53.516Z,3.60
2018-09-15T13:43:21.807Z,3.00
2018-09-15T13:45:50.100Z,2.98
2018-09-15T13:48:18.358Z,2.90
2018-09-15T13:50:46.667Z,2.80
2018-09-15T13:53:15.139Z,2.98
2018-09-15T13:55:43.575Z,3.00
2018-09-15T13:58:12.292Z,3.20
2018-09-15T14:00:40.908Z,3.27
2018-09-15T14:03:09.200Z,2.87
2018-09-15T14:05:37.580Z,2.92
2018-09-15T14:08:05.940Z,3.37
2018-09-15T14:10:34.205Z,3.20
2018-09-15T14:13:02.484Z,2.75
2018-09-15T14:15:30.747Z,3.12
2018-09-15T14:17:59.140Z,3.02
2018-09-15T14:20:27.404Z,2.90
2018-09-15T14:22:55.627Z,2.90
2018-09-15T14:25:23.891Z,2.98
2018-09-15T14:27:52.138Z,2.75
2018-09-15T14:30:20.380Z,2.80
2018-09-15T14:32:48.596Z,2.75
2018-09-15T14:35:16.855Z,3.15
2018-09-15T14:37:45.173Z,3.40
2018-09-15T14:40:13.464Z,2.60
2018-09-15T14:42:41.737Z,2.98
2018-09-15T14:45:10.001Z,2.72
2018-09-15T14:47:38.288Z,2.90
2018-09-15T14:50:06.639Z,3.05
2018-09-15T14:52:34.976Z,2.90
2018-09-15T14:55:04.169Z,3.05
2018-09-15T14:57:32.387Z,3.00
2018-09-15T15:00:00.687Z,3.22
2018-09-15T15:02:29.668Z,2.85
2018-09-15T15:04:57.900Z,2.87
2018-09-15T15:07:26.163Z,3.17
2018-09-15T15:09:54.374Z,3.58
2018-09-15T15:12:22.714Z,3.05
2018-09-15T15:14:50.991Z,3.00
2018-09-15T15:17:19.245Z,3.10
2018-09-15T15:19:47.544Z,3.27
2018-09-15T15:22:15.795Z,2.67
2018-09-15T15:24:44.095Z,2.98
2018-09-15T15:27:12.429Z,3.37
2018-09-15T15:29:40.683Z,2.90
2018-09-15T15:32:08.950Z,2.75
2018-09-15T15:34:37.283Z,3.00
2018-09-15T15:37:05.484Z,3.30
2018-09-15T15:39:33.749Z,2.95
2018-09-15T15:42:02.022Z,2.70
2018-09-15T15:44:30.250Z,2.62
2018-09-15T15:46:58.522Z,2.80
2018-09-15T15:49:26.797Z,2.92
2018-09-15T15:51:55.071Z,2.47
2018-09-15T15:54:23.314Z,2.75
2018-09-15T15:56:51.541Z,2.67
2018-09-15T15:59:19.814Z,2.55
2018-09-15T16:01:48.133Z,2.40
2018-09-15T16:04:16.378Z,2.27
2018-09-15T16:06:44.706Z,2.35
2018-09-15T16:09:12.945Z,2.37
2018-09-15T16:11:41.163Z,2.35
2018-09-15T16:14:09.368Z,2.30
2018-09-15T16:16:37.639Z,2.42
2018-09-15T16:19:05.877Z,2.50
2018-09-15T16:21:34.120Z,2.33
2018-09-15T16:24:02.393Z,2.62
2018-09-15T16:26:30.593Z,2.45
2018-09-15T16:28:58.909Z,2.58
2018-09-15T16:31:27.106Z,2.40
2018-09-15T16:33:55.356Z,2.40
2018-09-15T16:36:23.682Z,2.55
2018-09-15T16:38:51.945Z,2.80
2018-09-15T16:41:20.195Z,2.52
2018-09-15T16:43:48.593Z,2.83
2018-09-15T16:46:16.844Z,2.30
2018-09-15T16:48:45.103Z,2.40
2018-09-15T16:51:13.335Z,2.40
2018-09-15T16:53:41.602Z,2.42
2018-09-15T16:56:09.885Z,2.62
2018-09-15T16:58:38.138Z,2.72
2018-09-15T17:01:06.675Z,2.70
2018-09-15T17:03:34.934Z,2.65
2018-09-15T17:06:03.290Z,2.30
2018-09-15T17:08:31.575Z,2.50
2018-09-15T17:10:59.941Z,2.58
2018-09-15T17:13:28.206Z,2.42
2018-09-15T17:15:56.430Z,2.42
2018-09-15T17:18:24.683Z,2.40
2018-09-15T17:20:52.916Z,2.40
2018-09-15T17:23:21.189Z,2.50
2018-09-15T17:25:50.163Z,2.50
2018-09-15T17:28:18.426Z,2.33
2018-09-15T17:30:46.903Z,2.50
2018-09-15T17:33:15.131Z,2.58
2018-09-15T17:35:43.397Z,2.87
2018-09-15T17:38:11.697Z,2.70
2018-09-15T17:40:39.976Z,2.92
2018-09-15T17:43:08.320Z,2.58
2018-09-15T17:45:36.557Z,2.75
2018-09-15T17:48:05.001Z,2.37
2018-09-15T17:50:33.238Z,2.40
2018-09-15T17:53:01.520Z,2.70
2018-09-15T17:55:29.748Z,2.45
2018-09-15T17:57:58.198Z,3.00
2018-09-15T18:00:26.457Z,2.58
2018-09-15T18:02:55.604Z,2.92
2018-09-15T18:05:24.995Z,2.50
2018-09-15T18:07:53.207Z,2.62
2018-09-15T18:10:21.453Z,2.70
2018-09-15T18:12:49.867Z,3.08
2018-09-15T18:15:18.097Z,2.98
2018-09-15T18:17:46.365Z,3.40
2018-09-15T18:20:14.638Z,3.35
2018-09-15T18:22:42.873Z,3.52
2018-09-15T18:25:11.123Z,3.90
2018-09-15T18:27:39.355Z,3.65
2018-09-15T18:30:07.715Z,3.37
2018-09-15T18:32:35.970Z,3.95
2018-09-15T18:35:05.505Z,3.58
2018-09-15T18:37:34.078Z,3.52
2018-09-15T18:40:02.348Z,3.87
2018-09-15T18:42:30.548Z,3.75
2018-09-15T18:44:58.800Z,4.00
2018-09-15T18:47:30.189Z,3.90
2018-09-15T18:49:58.517Z,3.98
2018-09-15T18:52:26.732Z,4.50
2018-09-15T18:54:56.112Z,4.35
2018-09-15T18:57:24.471Z,4.10
2018-09-15T18:59:53.534Z,3.92
2018-09-15T19:02:22.011Z,4.10
2018-09-15T19:04:50.230Z,3.75
2018-09-15T19:07:18.479Z,3.70
2018-09-15T19:09:49.597Z,3.60
2018-09-15T19:12:17.806Z,3.72
2018-09-15T19:14:46.886Z,3.85
2018-09-15T19:17:15.067Z,3.95
2018-09-15T19:19:43.805Z,4.05
2018-09-15T19:22:12.310Z,3.77
2018-09-15T19:24:41.422Z,3.80
2018-09-15T19:27:09.682Z,3.90
2018-09-15T19:29:38.135Z,3.50
2018-09-15T19:32:06.403Z,3.37
2018-09-15T19:34:34.612Z,4.05
2018-09-15T19:37:02.837Z,4.03
2018-09-15T19:39:31.188Z,3.50
2018-09-15T19:42:00.915Z,3.83
2018-09-15T19:44:29.237Z,3.47
2018-09-15T19:46:57.487Z,3.70
2018-09-15T19:49:25.767Z,3.37
2018-09-15T19:51:53.989Z,3.70
2018-09-15T19:54:22.266Z,3.40
2018-09-15T19:56:50.520Z,3.70
2018-09-15T19:59:19.067Z,3.30
2018-09-15T20:01:47.175Z,3.70
2018-09-15T20:04:15.424Z,3.47
2018-09-15T20:06:43.668Z,3.42
2018-09-15T20:09:12.955Z,3.33
2018-09-15T20:11:41.191Z,3.60
2018-09-15T20:14:11.705Z,3.30
2018-09-15T20:16:38.847Z,3.85
2018-09-15T20:19:05.979Z,3.70
2018-09-15T20:21:33.115Z,4.00
2018-09-15T20:24:02.275Z,3.58
2018-09-15T20:26:32.444Z,3.90
2018-09-15T20:29:01.724Z,3.70
2018-09-15T20:31:30.099Z,4.12
2018-09-15T20:33:58.376Z,3.80
2018-09-15T20:36:27.290Z,3.60
2018-09-15T20:38:55.556Z,4.00
2018-09-15T20:41:23.771Z,3.50
2018-09-15T20:43:52.238Z,3.25
2018-09-15T20:46:20.502Z,3.85
2018-09-15T20:48:48.710Z,4.03
2018-09-15T20:51:16.914Z,3.70
2018-09-15T20:53:45.173Z,3.77
2018-09-15T20:56:14.106Z,3.50
2018-09-15T20:58:42.382Z,3.80
2018-09-15T21:01:10.655Z,3.47
2018-09-15T21:03:38.909Z,3.58
2018-09-15T21:06:07.193Z,3.55
2018-09-15T21:08:35.414Z,3.95
2018-09-15T21:11:03.630Z,3.65
2018-09-15T21:13:31.862Z,4.05
2018-09-15T21:16:00.310Z,4.03
2018-09-15T21:18:28.442Z,4.03
2018-09-15T21:20:56.760Z,3.95
2018-09-15T21:23:25.017Z,3.92
2018-09-15T21:25:53.591Z,3.95
2018-09-15T21:28:21.888Z,3.62
2018-09-15T21:30:50.199Z,3.80
2018-09-15T21:33:18.483Z,4.05
2018-09-15T21:35:46.822Z,4.03
2018-09-15T21:38:15.089Z,3.33
2018-09-15T21:40:43.414Z,3.87
2018-09-15T21:43:11.990Z,3.83
2018-09-15T21:45:40.382Z,3.70
2018-09-15T21:48:08.781Z,3.52
2018-09-15T21:50:37.143Z,3.70
2018-09-15T21:53:05.392Z,3.90
2018-09-15T21:55:33.602Z,4.20
2018-09-15T21:58:01.866Z,3.85
2018-09-15T22:00:30.109Z,3.72
2018-09-15T22:02:58.403Z,3.40
2018-09-15T22:05:26.745Z,2.85
2018-09-15T22:07:55.056Z,3.58
2018-09-15T22:10:23.272Z,3.75
2018-09-15T22:12:51.539Z,3.67
2018-09-15T22:15:26.983Z,3.98
2018-09-15T22:17:57.023Z,4.40
2018-09-15T22:20:25.291Z,4.10
2018-09-15T22:22:53.590Z,3.87
2018-09-15T22:25:21.801Z,4.30
2018-09-15T22:27:50.127Z,4.70
2018-09-15T22:30:18.645Z,4.22
2018-09-15T22:32:46.910Z,4.22
2018-09-15T22:35:15.202Z,4.22
2018-09-15T22:37:43.456Z,3.90
2018-09-15T22:40:11.723Z,4.03
2018-09-15T22:42:40.109Z,4.08
2018-09-15T22:45:08.388Z,4.28
2018-09-15T22:47:36.682Z,4.37
2018-09-15T22:50:05.426Z,3.92
2018-09-15T22:52:33.816Z,3.98
2018-09-15T22:55:02.119Z,3.85
2018-09-15T22:57:30.452Z,4.50
2018-09-15T22:59:58.865Z,3.90
2018-09-15T23:02:27.153Z,4.22
2018-09-15T23:04:55.470Z,4.50
2018-09-15T23:07:23.778Z,4.22
2018-09-15T23:09:52.030Z,4.28
2018-09-15T23:12:20.469Z,4.10
2018-09-15T23:14:48.766Z,4.30
2018-09-15T23:17:18.065Z,3.90
2018-09-15T23:19:46.389Z,4.15
2018-09-15T23:22:14.857Z,3.95
2018-09-15T23:24:43.094Z,4.25
2018-09-15T23:27:11.465Z,4.33
2018-09-15T23:29:39.721Z,3.60
2018-09-15T23:32:08.028Z,4.20
2018-09-15T23:34:36.371Z,4.00
2018-09-15T23:37:04.914Z,4.00
2018-09-15T23:39:33.147Z,4.15
2018-09-15T23:42:01.422Z,4.03
2018-09-15T23:44:29.643Z,3.98
2018-09-15T23:46:57.973Z,4.17
2018-09-15T23:49:26.463Z,3.87
2018-09-15T23:51:55.108Z,3.60
2018-09-15T23:54:23.385Z,4.10
2018-09-15T23:56:51.709Z,3.80
2018-09-15T23:59:20.580Z,4.20
